sensor_id;sensor_type;location;lat;lon;timestamp;temperature;humidity
64858;SHT30;51335;51.148;6.950;2023-07-09T00:00:18;19.73;84.55
64858;SHT30;51335;51.148;6.950;2023-07-09T00:00:49;19.71;84.62
64858;SHT30;51335;51.148;6.950;2023-07-09T00:01:19;19.70;84.71
64858;SHT30;51335;51.148;6.950;2023-07-09T00:01:50;19.67;84.70
64858;SHT30;51335;51.148;6.950;2023-07-09T00:02:22;19.67;84.77
64858;SHT30;51335;51.148;6.950;2023-07-09T00:02:53;19.67;84.86
64858;SHT30;51335;51.148;6.950;2023-07-09T00:03:23;19.69;84.86
64858;SHT30;51335;51.148;6.950;2023-07-09T00:03:53;19.67;84.86
64858;SHT30;51335;51.148;6.950;2023-07-09T00:04:23;19.66;84.87
64858;SHT30;51335;51.148;6.950;2023-07-09T00:04:54;19.66;84.97
64858;SHT30;51335;51.148;6.950;2023-07-09T00:05:24;19.66;84.91
64858;SHT30;51335;51.148;6.950;2023-07-09T00:05:54;19.65;85.02
64858;SHT30;51335;51.148;6.950;2023-07-09T00:06:24;19.65;85.11
64858;SHT30;51335;51.148;6.950;2023-07-09T00:06:57;19.63;85.18
64858;SHT30;51335;51.148;6.950;2023-07-09T00:07:32;19.62;85.21
64858;SHT30;51335;51.148;6.950;2023-07-09T00:08:02;19.59;85.29
64858;SHT30;51335;51.148;6.950;2023-07-09T00:08:33;19.59;85.29
64858;SHT30;51335;51.148;6.950;2023-07-09T00:09:03;19.57;85.28
64858;SHT30;51335;51.148;6.950;2023-07-09T00:09:34;19.56;85.22
64858;SHT30;51335;51.148;6.950;2023-07-09T00:10:19;19.59;85.21
64858;SHT30;51335;51.148;6.950;2023-07-09T00:10:50;19.59;85.37
64858;SHT30;51335;51.148;6.950;2023-07-09T00:11:20;19.60;85.54
64858;SHT30;51335;51.148;6.950;2023-07-09T00:11:53;19.57;85.61
64858;SHT30;51335;51.148;6.950;2023-07-09T00:12:24;19.62;85.79
64858;SHT30;51335;51.148;6.950;2023-07-09T00:12:54;19.59;85.88
64858;SHT30;51335;51.148;6.950;2023-07-09T00:13:26;19.59;85.98
64858;SHT30;51335;51.148;6.950;2023-07-09T00:13:57;19.56;85.99
64858;SHT30;51335;51.148;6.950;2023-07-09T00:14:27;19.55;85.99
64858;SHT30;51335;51.148;6.950;2023-07-09T00:14:57;19.53;86.05
64858;SHT30;51335;51.148;6.950;2023-07-09T00:15:28;19.53;86.13
64858;SHT30;51335;51.148;6.950;2023-07-09T00:16:00;19.49;86.26
64858;SHT30;51335;51.148;6.950;2023-07-09T00:16:31;19.50;86.47
64858;SHT30;51335;51.148;6.950;2023-07-09T00:17:01;19.48;86.48
64858;SHT30;51335;51.148;6.950;2023-07-09T00:17:33;19.46;86.57
64858;SHT30;51335;51.148;6.950;2023-07-09T00:18:03;19.48;86.64
64858;SHT30;51335;51.148;6.950;2023-07-09T00:18:33;19.46;86.64
64858;SHT30;51335;51.148;6.950;2023-07-09T00:19:04;19.48;86.69
64858;SHT30;51335;51.148;6.950;2023-07-09T00:19:35;19.45;86.78
64858;SHT30;51335;51.148;6.950;2023-07-09T00:20:07;19.46;86.93
64858;SHT30;51335;51.148;6.950;2023-07-09T00:20:40;19.48;87.04
64858;SHT30;51335;51.148;6.950;2023-07-09T00:21:10;19.46;87.04
64858;SHT30;51335;51.148;6.950;2023-07-09T00:21:41;19.49;87.16
64858;SHT30;51335;51.148;6.950;2023-07-09T00:22:16;19.45;87.16
64858;SHT30;51335;51.148;6.950;2023-07-09T00:22:47;19.45;87.21
64858;SHT30;51335;51.148;6.950;2023-07-09T00:23:18;19.42;87.45
64858;SHT30;51335;51.148;6.950;2023-07-09T00:23:48;19.42;87.37
64858;SHT30;51335;51.148;6.950;2023-07-09T00:24:19;19.42;87.37
64858;SHT30;51335;51.148;6.950;2023-07-09T00:24:50;19.42;87.36
64858;SHT30;51335;51.148;6.950;2023-07-09T00:25:21;19.42;87.32
64858;SHT30;51335;51.148;6.950;2023-07-09T00:25:51;19.40;87.38
64858;SHT30;51335;51.148;6.950;2023-07-09T00:26:26;19.40;87.36
64858;SHT30;51335;51.148;6.950;2023-07-09T00:26:56;19.40;87.29
64858;SHT30;51335;51.148;6.950;2023-07-09T00:27:28;19.43;87.24
64858;SHT30;51335;51.148;6.950;2023-07-09T00:27:59;19.42;87.28
64858;SHT30;51335;51.148;6.950;2023-07-09T00:28:29;19.40;87.41
64858;SHT30;51335;51.148;6.950;2023-07-09T00:28:59;19.42;87.46
64858;SHT30;51335;51.148;6.950;2023-07-09T00:29:30;19.43;87.53
64858;SHT30;51335;51.148;6.950;2023-07-09T00:30:00;19.42;87.51
64858;SHT30;51335;51.148;6.950;2023-07-09T00:30:30;19.43;87.39
64858;SHT30;51335;51.148;6.950;2023-07-09T00:31:01;19.43;87.63
64858;SHT30;51335;51.148;6.950;2023-07-09T00:31:31;19.40;87.67
64858;SHT30;51335;51.148;6.950;2023-07-09T00:32:01;19.35;87.80
64858;SHT30;51335;51.148;6.950;2023-07-09T00:32:31;19.36;87.72
64858;SHT30;51335;51.148;6.950;2023-07-09T00:33:02;19.35;87.76
64858;SHT30;51335;51.148;6.950;2023-07-09T00:33:32;19.36;87.83
64858;SHT30;51335;51.148;6.950;2023-07-09T00:34:02;19.32;87.94
64858;SHT30;51335;51.148;6.950;2023-07-09T00:34:32;19.32;87.96
64858;SHT30;51335;51.148;6.950;2023-07-09T00:35:03;19.30;87.96
64858;SHT30;51335;51.148;6.950;2023-07-09T00:35:33;19.29;88.06
64858;SHT30;51335;51.148;6.950;2023-07-09T00:36:10;19.29;87.98
64858;SHT30;51335;51.148;6.950;2023-07-09T00:36:42;19.30;87.94
64858;SHT30;51335;51.148;6.950;2023-07-09T00:37:12;19.33;87.87
64858;SHT30;51335;51.148;6.950;2023-07-09T00:37:43;19.26;87.93
64858;SHT30;51335;51.148;6.950;2023-07-09T00:38:21;19.25;88.06
64858;SHT30;51335;51.148;6.950;2023-07-09T00:38:52;19.23;88.15
64858;SHT30;51335;51.148;6.950;2023-07-09T00:39:22;19.25;88.17
64858;SHT30;51335;51.148;6.950;2023-07-09T00:39:52;19.25;88.24
64858;SHT30;51335;51.148;6.950;2023-07-09T00:40:23;19.26;88.27
64858;SHT30;51335;51.148;6.950;2023-07-09T00:41:32;19.22;88.42
64858;SHT30;51335;51.148;6.950;2023-07-09T00:42:03;19.19;88.47
64858;SHT30;51335;51.148;6.950;2023-07-09T00:42:34;19.18;88.54
64858;SHT30;51335;51.148;6.950;2023-07-09T00:43:10;19.19;88.51
64858;SHT30;51335;51.148;6.950;2023-07-09T00:43:45;19.16;88.56
64858;SHT30;51335;51.148;6.950;2023-07-09T00:44:54;19.18;88.63
64858;SHT30;51335;51.148;6.950;2023-07-09T00:45:26;19.19;88.58
64858;SHT30;51335;51.148;6.950;2023-07-09T00:47:44;19.22;88.68
64858;SHT30;51335;51.148;6.950;2023-07-09T00:48:17;19.18;88.50
64858;SHT30;51335;51.148;6.950;2023-07-09T00:48:58;19.19;88.46
64858;SHT30;51335;51.148;6.950;2023-07-09T00:49:38;19.18;88.47
64858;SHT30;51335;51.148;6.950;2023-07-09T00:50:31;19.16;88.41
64858;SHT30;51335;51.148;6.950;2023-07-09T00:51:10;19.18;88.39
64858;SHT30;51335;51.148;6.950;2023-07-09T00:51:44;19.16;88.36
64858;SHT30;51335;51.148;6.950;2023-07-09T00:52:28;19.19;88.31
64858;SHT30;51335;51.148;6.950;2023-07-09T00:53:05;19.21;88.18
64858;SHT30;51335;51.148;6.950;2023-07-09T00:53:38;19.21;88.19
64858;SHT30;51335;51.148;6.950;2023-07-09T00:54:52;19.21;88.37
64858;SHT30;51335;51.148;6.950;2023-07-09T00:55:42;19.16;88.41
64858;SHT30;51335;51.148;6.950;2023-07-09T00:56:30;19.16;88.40
64858;SHT30;51335;51.148;6.950;2023-07-09T00:57:09;19.16;88.38
64858;SHT30;51335;51.148;6.950;2023-07-09T00:57:41;19.16;88.32
64858;SHT30;51335;51.148;6.950;2023-07-09T00:58:14;19.15;88.23
64858;SHT30;51335;51.148;6.950;2023-07-09T00:58:45;19.15;88.32
64858;SHT30;51335;51.148;6.950;2023-07-09T00:59:18;19.16;88.20
64858;SHT30;51335;51.148;6.950;2023-07-09T00:59:55;19.18;88.21
64858;SHT30;51335;51.148;6.950;2023-07-09T01:00:37;19.15;88.36
64858;SHT30;51335;51.148;6.950;2023-07-09T01:01:11;19.18;88.39
64858;SHT30;51335;51.148;6.950;2023-07-09T01:01:43;19.19;88.29
64858;SHT30;51335;51.148;6.950;2023-07-09T01:02:14;19.18;88.29
64858;SHT30;51335;51.148;6.950;2023-07-09T01:02:46;19.18;88.50
64858;SHT30;51335;51.148;6.950;2023-07-09T01:03:31;19.16;88.33
64858;SHT30;51335;51.148;6.950;2023-07-09T01:04:04;19.15;88.44
64858;SHT30;51335;51.148;6.950;2023-07-09T01:04:34;19.15;88.44
64858;SHT30;51335;51.148;6.950;2023-07-09T01:05:05;19.16;88.42
64858;SHT30;51335;51.148;6.950;2023-07-09T01:05:36;19.15;88.46
64858;SHT30;51335;51.148;6.950;2023-07-09T01:06:07;19.12;88.47
64858;SHT30;51335;51.148;6.950;2023-07-09T01:06:42;19.12;88.55
64858;SHT30;51335;51.148;6.950;2023-07-09T01:07:13;19.08;88.60
64858;SHT30;51335;51.148;6.950;2023-07-09T01:07:43;19.12;88.62
64858;SHT30;51335;51.148;6.950;2023-07-09T01:08:14;19.08;88.66
64858;SHT30;51335;51.148;6.950;2023-07-09T01:08:44;19.09;88.68
64858;SHT30;51335;51.148;6.950;2023-07-09T01:09:15;19.07;88.72
64858;SHT30;51335;51.148;6.950;2023-07-09T01:09:46;19.09;88.69
64858;SHT30;51335;51.148;6.950;2023-07-09T01:10:17;19.07;88.70
64858;SHT30;51335;51.148;6.950;2023-07-09T01:10:47;19.08;88.74
64858;SHT30;51335;51.148;6.950;2023-07-09T01:11:19;19.05;88.83
64858;SHT30;51335;51.148;6.950;2023-07-09T01:11:50;19.04;88.82
64858;SHT30;51335;51.148;6.950;2023-07-09T01:12:22;19.11;88.80
64858;SHT30;51335;51.148;6.950;2023-07-09T01:12:53;19.09;88.97
64858;SHT30;51335;51.148;6.950;2023-07-09T01:13:24;19.11;88.82
64858;SHT30;51335;51.148;6.950;2023-07-09T01:13:56;19.11;88.68
64858;SHT30;51335;51.148;6.950;2023-07-09T01:14:27;19.09;88.73
64858;SHT30;51335;51.148;6.950;2023-07-09T01:14:57;19.09;88.80
64858;SHT30;51335;51.148;6.950;2023-07-09T01:15:28;19.08;88.75
64858;SHT30;51335;51.148;6.950;2023-07-09T01:15:59;19.08;88.70
64858;SHT30;51335;51.148;6.950;2023-07-09T01:16:35;19.02;88.66
64858;SHT30;51335;51.148;6.950;2023-07-09T01:17:07;19.01;88.67
64858;SHT30;51335;51.148;6.950;2023-07-09T01:17:39;19.02;88.66
64858;SHT30;51335;51.148;6.950;2023-07-09T01:18:09;18.98;88.74
64858;SHT30;51335;51.148;6.950;2023-07-09T01:18:39;18.98;88.88
64858;SHT30;51335;51.148;6.950;2023-07-09T01:19:09;19.00;89.00
64858;SHT30;51335;51.148;6.950;2023-07-09T01:19:41;19.04;89.10
64858;SHT30;51335;51.148;6.950;2023-07-09T01:20:18;19.04;89.13
64858;SHT30;51335;51.148;6.950;2023-07-09T01:20:48;19.02;89.19
64858;SHT30;51335;51.148;6.950;2023-07-09T01:21:19;19.00;89.46
64858;SHT30;51335;51.148;6.950;2023-07-09T01:21:49;19.00;89.44
64858;SHT30;51335;51.148;6.950;2023-07-09T01:22:21;19.00;89.52
64858;SHT30;51335;51.148;6.950;2023-07-09T01:22:52;18.97;89.61
64858;SHT30;51335;51.148;6.950;2023-07-09T01:23:22;18.94;89.73
64858;SHT30;51335;51.148;6.950;2023-07-09T01:23:52;18.92;89.71
64858;SHT30;51335;51.148;6.950;2023-07-09T01:25:24;18.91;89.93
64858;SHT30;51335;51.148;6.950;2023-07-09T01:25:54;18.90;89.85
64858;SHT30;51335;51.148;6.950;2023-07-09T01:26:27;18.94;89.87
64858;SHT30;51335;51.148;6.950;2023-07-09T01:26:57;18.94;89.77
64858;SHT30;51335;51.148;6.950;2023-07-09T01:27:32;18.90;89.64
64858;SHT30;51335;51.148;6.950;2023-07-09T01:28:03;18.90;89.73
64858;SHT30;51335;51.148;6.950;2023-07-09T01:28:33;18.91;89.57
64858;SHT30;51335;51.148;6.950;2023-07-09T01:29:03;18.91;89.45
64858;SHT30;51335;51.148;6.950;2023-07-09T01:29:35;18.95;89.38
64858;SHT30;51335;51.148;6.950;2023-07-09T01:30:19;18.95;89.19
64858;SHT30;51335;51.148;6.950;2023-07-09T01:30:50;18.94;89.19
64858;SHT30;51335;51.148;6.950;2023-07-09T01:31:20;18.94;89.14
64858;SHT30;51335;51.148;6.950;2023-07-09T01:31:50;18.91;89.19
64858;SHT30;51335;51.148;6.950;2023-07-09T01:32:21;18.94;89.02
64858;SHT30;51335;51.148;6.950;2023-07-09T01:32:56;18.94;88.98
64858;SHT30;51335;51.148;6.950;2023-07-09T01:33:27;18.97;88.96
64858;SHT30;51335;51.148;6.950;2023-07-09T01:33:57;19.00;88.79
64858;SHT30;51335;51.148;6.950;2023-07-09T01:34:28;19.04;88.70
64858;SHT30;51335;51.148;6.950;2023-07-09T01:35:00;19.01;88.80
64858;SHT30;51335;51.148;6.950;2023-07-09T01:35:33;18.98;88.86
64858;SHT30;51335;51.148;6.950;2023-07-09T01:36:03;18.98;88.96
64858;SHT30;51335;51.148;6.950;2023-07-09T01:36:34;19.00;89.03
64858;SHT30;51335;51.148;6.950;2023-07-09T01:37:04;18.98;89.08
64858;SHT30;51335;51.148;6.950;2023-07-09T01:37:36;18.94;89.10
64858;SHT30;51335;51.148;6.950;2023-07-09T01:38:07;18.94;89.11
64858;SHT30;51335;51.148;6.950;2023-07-09T01:38:38;18.94;89.08
64858;SHT30;51335;51.148;6.950;2023-07-09T01:39:08;18.90;89.04
64858;SHT30;51335;51.148;6.950;2023-07-09T01:39:38;18.91;89.07
64858;SHT30;51335;51.148;6.950;2023-07-09T01:40:12;18.88;89.05
64858;SHT30;51335;51.148;6.950;2023-07-09T01:40:42;18.88;89.09
64858;SHT30;51335;51.148;6.950;2023-07-09T01:41:12;18.87;89.10
64858;SHT30;51335;51.148;6.950;2023-07-09T01:41:43;18.84;89.10
64858;SHT30;51335;51.148;6.950;2023-07-09T01:42:13;18.84;89.09
64858;SHT30;51335;51.148;6.950;2023-07-09T01:42:43;18.81;89.07
64858;SHT30;51335;51.148;6.950;2023-07-09T01:43:14;18.81;89.10
64858;SHT30;51335;51.148;6.950;2023-07-09T01:43:44;18.81;89.12
64858;SHT30;51335;51.148;6.950;2023-07-09T01:44:14;18.81;89.08
64858;SHT30;51335;51.148;6.950;2023-07-09T01:44:45;18.80;89.05
64858;SHT30;51335;51.148;6.950;2023-07-09T01:45:15;18.80;89.09
64858;SHT30;51335;51.148;6.950;2023-07-09T01:45:45;18.81;89.14
64858;SHT30;51335;51.148;6.950;2023-07-09T01:46:16;18.78;89.23
64858;SHT30;51335;51.148;6.950;2023-07-09T01:46:46;18.80;89.25
64858;SHT30;51335;51.148;6.950;2023-07-09T01:47:17;18.75;89.28
64858;SHT30;51335;51.148;6.950;2023-07-09T01:47:48;18.75;89.33
64858;SHT30;51335;51.148;6.950;2023-07-09T01:48:19;18.77;89.34
64858;SHT30;51335;51.148;6.950;2023-07-09T01:48:49;18.75;89.41
64858;SHT30;51335;51.148;6.950;2023-07-09T01:49:19;18.78;89.40
64858;SHT30;51335;51.148;6.950;2023-07-09T01:49:50;18.77;89.49
64858;SHT30;51335;51.148;6.950;2023-07-09T01:50:21;18.78;89.53
64858;SHT30;51335;51.148;6.950;2023-07-09T01:50:53;18.80;89.59
64858;SHT30;51335;51.148;6.950;2023-07-09T01:51:23;18.81;89.72
64858;SHT30;51335;51.148;6.950;2023-07-09T01:51:53;18.80;89.78
64858;SHT30;51335;51.148;6.950;2023-07-09T01:52:26;18.85;89.89
64858;SHT30;51335;51.148;6.950;2023-07-09T01:52:57;18.83;89.89
64858;SHT30;51335;51.148;6.950;2023-07-09T01:53:27;18.84;89.91
64858;SHT30;51335;51.148;6.950;2023-07-09T01:53:58;18.83;89.94
64858;SHT30;51335;51.148;6.950;2023-07-09T01:54:30;18.84;90.04
64858;SHT30;51335;51.148;6.950;2023-07-09T01:55:01;18.77;90.12
64858;SHT30;51335;51.148;6.950;2023-07-09T01:55:31;18.75;90.17
64858;SHT30;51335;51.148;6.950;2023-07-09T01:56:03;18.74;90.22
64858;SHT30;51335;51.148;6.950;2023-07-09T01:56:33;18.72;90.33
64858;SHT30;51335;51.148;6.950;2023-07-09T01:57:16;18.70;90.32
64858;SHT30;51335;51.148;6.950;2023-07-09T01:57:47;18.70;90.37
64858;SHT30;51335;51.148;6.950;2023-07-09T01:58:17;18.67;90.38
64858;SHT30;51335;51.148;6.950;2023-07-09T01:58:48;18.65;90.39
64858;SHT30;51335;51.148;6.950;2023-07-09T01:59:18;18.61;90.45
64858;SHT30;51335;51.148;6.950;2023-07-09T01:59:52;18.64;90.46
64858;SHT30;51335;51.148;6.950;2023-07-09T02:00:22;18.63;90.38
64858;SHT30;51335;51.148;6.950;2023-07-09T02:00:52;18.60;90.35
64858;SHT30;51335;51.148;6.950;2023-07-09T02:01:23;18.61;90.40
64858;SHT30;51335;51.148;6.950;2023-07-09T02:01:53;18.59;90.39
64858;SHT30;51335;51.148;6.950;2023-07-09T02:02:23;18.59;90.44
64858;SHT30;51335;51.148;6.950;2023-07-09T02:02:54;18.57;90.44
64858;SHT30;51335;51.148;6.950;2023-07-09T02:03:24;18.60;90.42
64858;SHT30;51335;51.148;6.950;2023-07-09T02:03:54;18.59;90.48
64858;SHT30;51335;51.148;6.950;2023-07-09T02:04:25;18.60;90.48
64858;SHT30;51335;51.148;6.950;2023-07-09T02:04:56;18.56;90.49
64858;SHT30;51335;51.148;6.950;2023-07-09T02:05:26;18.60;90.48
64858;SHT30;51335;51.148;6.950;2023-07-09T02:05:57;18.57;90.45
64858;SHT30;51335;51.148;6.950;2023-07-09T02:06:27;18.57;90.48
64858;SHT30;51335;51.148;6.950;2023-07-09T02:06:57;18.57;90.50
64858;SHT30;51335;51.148;6.950;2023-07-09T02:07:27;18.56;90.52
64858;SHT30;51335;51.148;6.950;2023-07-09T02:07:58;18.57;90.52
64858;SHT30;51335;51.148;6.950;2023-07-09T02:08:28;18.54;90.45
64858;SHT30;51335;51.148;6.950;2023-07-09T02:08:59;18.57;90.41
64858;SHT30;51335;51.148;6.950;2023-07-09T02:09:29;18.54;90.59
64858;SHT30;51335;51.148;6.950;2023-07-09T02:09:59;18.54;90.53
64858;SHT30;51335;51.148;6.950;2023-07-09T02:10:30;18.53;90.55
64858;SHT30;51335;51.148;6.950;2023-07-09T02:11:00;18.54;90.53
64858;SHT30;51335;51.148;6.950;2023-07-09T02:11:30;18.54;90.52
64858;SHT30;51335;51.148;6.950;2023-07-09T02:12:01;18.54;90.42
64858;SHT30;51335;51.148;6.950;2023-07-09T02:12:31;18.57;90.38
64858;SHT30;51335;51.148;6.950;2023-07-09T02:13:01;18.56;90.37
64858;SHT30;51335;51.148;6.950;2023-07-09T02:13:32;18.59;90.35
64858;SHT30;51335;51.148;6.950;2023-07-09T02:14:02;18.61;90.38
64858;SHT30;51335;51.148;6.950;2023-07-09T02:14:32;18.59;90.44
64858;SHT30;51335;51.148;6.950;2023-07-09T02:15:03;18.56;90.79
64858;SHT30;51335;51.148;6.950;2023-07-09T02:15:33;18.57;90.70
64858;SHT30;51335;51.148;6.950;2023-07-09T02:16:04;18.57;90.62
64858;SHT30;51335;51.148;6.950;2023-07-09T02:16:34;18.59;90.61
64858;SHT30;51335;51.148;6.950;2023-07-09T02:17:05;18.52;90.65
64858;SHT30;51335;51.148;6.950;2023-07-09T02:17:35;18.63;90.59
64858;SHT30;51335;51.148;6.950;2023-07-09T02:18:05;18.64;90.54
64858;SHT30;51335;51.148;6.950;2023-07-09T02:18:36;18.61;90.57
64858;SHT30;51335;51.148;6.950;2023-07-09T02:19:06;18.59;90.63
64858;SHT30;51335;51.148;6.950;2023-07-09T02:19:36;18.61;90.65
64858;SHT30;51335;51.148;6.950;2023-07-09T02:20:08;18.63;90.57
64858;SHT30;51335;51.148;6.950;2023-07-09T02:20:39;18.65;90.44
64858;SHT30;51335;51.148;6.950;2023-07-09T02:21:09;18.67;90.39
64858;SHT30;51335;51.148;6.950;2023-07-09T02:21:39;18.64;90.27
64858;SHT30;51335;51.148;6.950;2023-07-09T02:22:10;18.64;90.20
64858;SHT30;51335;51.148;6.950;2023-07-09T02:22:41;18.64;90.26
64858;SHT30;51335;51.148;6.950;2023-07-09T02:23:11;18.61;90.36
64858;SHT30;51335;51.148;6.950;2023-07-09T02:23:42;18.63;90.46
64858;SHT30;51335;51.148;6.950;2023-07-09T02:24:12;18.63;90.60
64858;SHT30;51335;51.148;6.950;2023-07-09T02:24:42;18.64;90.65
64858;SHT30;51335;51.148;6.950;2023-07-09T02:25:13;18.63;90.66
64858;SHT30;51335;51.148;6.950;2023-07-09T02:25:43;18.64;90.53
64858;SHT30;51335;51.148;6.950;2023-07-09T02:26:13;18.65;90.39
64858;SHT30;51335;51.148;6.950;2023-07-09T02:26:43;18.70;90.32
64858;SHT30;51335;51.148;6.950;2023-07-09T02:27:16;18.68;90.20
64858;SHT30;51335;51.148;6.950;2023-07-09T02:27:46;18.68;90.13
64858;SHT30;51335;51.148;6.950;2023-07-09T02:28:16;18.67;90.16
64858;SHT30;51335;51.148;6.950;2023-07-09T02:28:47;18.63;90.18
64858;SHT30;51335;51.148;6.950;2023-07-09T02:29:17;18.60;90.27
64858;SHT30;51335;51.148;6.950;2023-07-09T02:29:48;18.59;90.28
64858;SHT30;51335;51.148;6.950;2023-07-09T02:30:18;18.56;90.26
64858;SHT30;51335;51.148;6.950;2023-07-09T02:30:48;18.54;90.27
64858;SHT30;51335;51.148;6.950;2023-07-09T02:31:19;18.54;90.28
64858;SHT30;51335;51.148;6.950;2023-07-09T02:31:50;18.52;90.37
64858;SHT30;51335;51.148;6.950;2023-07-09T02:32:26;18.50;90.37
64858;SHT30;51335;51.148;6.950;2023-07-09T02:32:57;18.46;90.37
64858;SHT30;51335;51.148;6.950;2023-07-09T02:33:27;18.49;90.44
64858;SHT30;51335;51.148;6.950;2023-07-09T02:33:57;18.44;90.47
64858;SHT30;51335;51.148;6.950;2023-07-09T02:34:29;18.43;90.52
64858;SHT30;51335;51.148;6.950;2023-07-09T02:34:59;18.43;90.52
64858;SHT30;51335;51.148;6.950;2023-07-09T02:35:30;18.50;90.44
64858;SHT30;51335;51.148;6.950;2023-07-09T02:36:00;18.52;90.56
64858;SHT30;51335;51.148;6.950;2023-07-09T02:36:30;18.50;90.55
64858;SHT30;51335;51.148;6.950;2023-07-09T02:37:00;18.49;90.55
64858;SHT30;51335;51.148;6.950;2023-07-09T02:37:31;18.44;90.65
64858;SHT30;51335;51.148;6.950;2023-07-09T02:38:02;18.43;90.67
64858;SHT30;51335;51.148;6.950;2023-07-09T02:38:32;18.43;90.79
64858;SHT30;51335;51.148;6.950;2023-07-09T02:39:02;18.37;90.93
64858;SHT30;51335;51.148;6.950;2023-07-09T02:39:33;18.42;90.96
64858;SHT30;51335;51.148;6.950;2023-07-09T02:40:04;18.43;90.97
64858;SHT30;51335;51.148;6.950;2023-07-09T02:40:34;18.44;91.07
64858;SHT30;51335;51.148;6.950;2023-07-09T02:41:05;18.49;91.09
64858;SHT30;51335;51.148;6.950;2023-07-09T02:41:35;18.43;91.11
64858;SHT30;51335;51.148;6.950;2023-07-09T02:42:07;18.40;91.13
64858;SHT30;51335;51.148;6.950;2023-07-09T02:42:38;18.40;91.31
64858;SHT30;51335;51.148;6.950;2023-07-09T02:43:08;18.36;91.45
64858;SHT30;51335;51.148;6.950;2023-07-09T02:43:39;18.33;91.52
64858;SHT30;51335;51.148;6.950;2023-07-09T02:44:09;18.28;91.58
64858;SHT30;51335;51.148;6.950;2023-07-09T02:44:41;18.26;91.67
64858;SHT30;51335;51.148;6.950;2023-07-09T02:45:11;18.25;91.76
64858;SHT30;51335;51.148;6.950;2023-07-09T02:45:41;18.22;91.82
64858;SHT30;51335;51.148;6.950;2023-07-09T02:46:12;18.23;91.69
64858;SHT30;51335;51.148;6.950;2023-07-09T02:46:45;18.19;91.59
64858;SHT30;51335;51.148;6.950;2023-07-09T02:47:16;18.23;91.63
64858;SHT30;51335;51.148;6.950;2023-07-09T02:47:47;18.26;91.53
64858;SHT30;51335;51.148;6.950;2023-07-09T02:48:17;18.26;91.45
64858;SHT30;51335;51.148;6.950;2023-07-09T02:48:47;18.25;91.45
64858;SHT30;51335;51.148;6.950;2023-07-09T02:49:18;18.21;91.52
64858;SHT30;51335;51.148;6.950;2023-07-09T02:49:48;18.19;91.58
64858;SHT30;51335;51.148;6.950;2023-07-09T02:50:18;18.15;91.60
64858;SHT30;51335;51.148;6.950;2023-07-09T02:50:48;18.15;91.69
64858;SHT30;51335;51.148;6.950;2023-07-09T02:51:19;18.13;91.65
64858;SHT30;51335;51.148;6.950;2023-07-09T02:51:49;18.13;91.67
64858;SHT30;51335;51.148;6.950;2023-07-09T02:52:19;18.15;91.67
64858;SHT30;51335;51.148;6.950;2023-07-09T02:52:50;18.17;91.64
64858;SHT30;51335;51.148;6.950;2023-07-09T02:53:21;18.17;91.65
64858;SHT30;51335;51.148;6.950;2023-07-09T02:53:51;18.15;91.64
64858;SHT30;51335;51.148;6.950;2023-07-09T02:54:21;18.17;91.78
64858;SHT30;51335;51.148;6.950;2023-07-09T02:54:51;18.15;91.85
64858;SHT30;51335;51.148;6.950;2023-07-09T02:55:22;18.15;91.94
64858;SHT30;51335;51.148;6.950;2023-07-09T02:55:52;18.13;91.96
64858;SHT30;51335;51.148;6.950;2023-07-09T02:56:23;18.12;91.91
64858;SHT30;51335;51.148;6.950;2023-07-09T02:56:53;18.13;91.90
64858;SHT30;51335;51.148;6.950;2023-07-09T02:57:24;18.12;91.93
64858;SHT30;51335;51.148;6.950;2023-07-09T02:57:54;18.08;91.96
64858;SHT30;51335;51.148;6.950;2023-07-09T02:58:24;18.10;92.06
64858;SHT30;51335;51.148;6.950;2023-07-09T02:58:54;18.06;92.09
64858;SHT30;51335;51.148;6.950;2023-07-09T02:59:25;18.08;92.00
64858;SHT30;51335;51.148;6.950;2023-07-09T02:59:55;18.05;91.99
64858;SHT30;51335;51.148;6.950;2023-07-09T03:00:25;18.05;91.98
64858;SHT30;51335;51.148;6.950;2023-07-09T03:00:55;18.06;91.96
64858;SHT30;51335;51.148;6.950;2023-07-09T03:01:26;18.02;91.94
64858;SHT30;51335;51.148;6.950;2023-07-09T03:01:56;18.01;91.98
64858;SHT30;51335;51.148;6.950;2023-07-09T03:02:26;18.02;91.99
64858;SHT30;51335;51.148;6.950;2023-07-09T03:02:57;18.01;91.95
64858;SHT30;51335;51.148;6.950;2023-07-09T03:03:27;18.01;91.86
64858;SHT30;51335;51.148;6.950;2023-07-09T03:03:57;18.02;91.79
64858;SHT30;51335;51.148;6.950;2023-07-09T03:04:28;18.08;91.76
64858;SHT30;51335;51.148;6.950;2023-07-09T03:04:58;18.05;91.75
64858;SHT30;51335;51.148;6.950;2023-07-09T03:05:28;18.09;91.60
64858;SHT30;51335;51.148;6.950;2023-07-09T03:05:59;18.09;91.44
64858;SHT30;51335;51.148;6.950;2023-07-09T03:06:30;18.10;91.51
64858;SHT30;51335;51.148;6.950;2023-07-09T03:07:01;18.06;91.52
64858;SHT30;51335;51.148;6.950;2023-07-09T03:07:31;18.09;91.55
64858;SHT30;51335;51.148;6.950;2023-07-09T03:08:01;18.09;91.51
64858;SHT30;51335;51.148;6.950;2023-07-09T03:08:31;18.06;91.61
64858;SHT30;51335;51.148;6.950;2023-07-09T03:09:03;18.06;91.60
64858;SHT30;51335;51.148;6.950;2023-07-09T03:09:34;18.05;91.62
64858;SHT30;51335;51.148;6.950;2023-07-09T03:10:05;18.03;91.61
64858;SHT30;51335;51.148;6.950;2023-07-09T03:10:35;18.02;91.61
64858;SHT30;51335;51.148;6.950;2023-07-09T03:11:12;18.03;91.63
64858;SHT30;51335;51.148;6.950;2023-07-09T03:11:42;18.02;91.63
64858;SHT30;51335;51.148;6.950;2023-07-09T03:12:13;18.01;91.61
64858;SHT30;51335;51.148;6.950;2023-07-09T03:12:43;18.02;91.59
64858;SHT30;51335;51.148;6.950;2023-07-09T03:13:13;18.03;91.58
64858;SHT30;51335;51.148;6.950;2023-07-09T03:13:44;18.05;91.70
64858;SHT30;51335;51.148;6.950;2023-07-09T03:14:15;18.01;91.84
64858;SHT30;51335;51.148;6.950;2023-07-09T03:14:48;18.03;91.90
64858;SHT30;51335;51.148;6.950;2023-07-09T03:15:19;17.99;91.94
64858;SHT30;51335;51.148;6.950;2023-07-09T03:15:56;17.98;92.06
64858;SHT30;51335;51.148;6.950;2023-07-09T03:16:28;18.01;92.12
64858;SHT30;51335;51.148;6.950;2023-07-09T03:16:58;17.99;92.28
64858;SHT30;51335;51.148;6.950;2023-07-09T03:17:28;17.96;92.23
64858;SHT30;51335;51.148;6.950;2023-07-09T03:17:59;17.98;92.29
64858;SHT30;51335;51.148;6.950;2023-07-09T03:18:29;17.98;92.30
64858;SHT30;51335;51.148;6.950;2023-07-09T03:19:00;17.95;92.35
64858;SHT30;51335;51.148;6.950;2023-07-09T03:19:30;17.91;92.39
64858;SHT30;51335;51.148;6.950;2023-07-09T03:20:01;17.91;92.51
64858;SHT30;51335;51.148;6.950;2023-07-09T03:20:32;17.91;92.55
64858;SHT30;51335;51.148;6.950;2023-07-09T03:21:02;17.91;92.59
64858;SHT30;51335;51.148;6.950;2023-07-09T03:21:32;17.89;92.68
64858;SHT30;51335;51.148;6.950;2023-07-09T03:22:03;17.91;92.72
64858;SHT30;51335;51.148;6.950;2023-07-09T03:22:33;17.89;92.72
64858;SHT30;51335;51.148;6.950;2023-07-09T03:23:03;17.84;92.96